sensor_id;sensor_type;location;lat;lon;timestamp;P1;durP1;ratioP1;P2;durP2;ratioP2
10586;SDS011;5341;47.606;7.576;2023-04-24T00:00:46;1.10;;;1.00;;
10586;SDS011;5341;47.606;7.576;2023-04-24T00:03:18;1.40;;;1.00;;
10586;SDS011;5341;47.606;7.576;2023-04-24T00:05:56;1.55;;;1.08;;
10586;SDS011;5341;47.606;7.576;2023-04-24T00:08:25;1.40;;;1.05;;
10586;SDS011;5341;47.606;7.576;2023-04-24T00:10:56;1.38;;;1.10;;
10586;SDS011;5341;47.606;7.576;2023-04-24T00:13:24;1.00;;;0.90;;
10586;SDS011;5341;47.606;7.576;2023-04-24T00:15:51;1.95;;;0.88;;
10586;SDS011;5341;47.606;7.576;2023-04-24T00:18:19;1.75;;;0.90;;
10586;SDS011;5341;47.606;7.576;2023-04-24T00:20:47;1.60;;;0.90;;
10586;SDS011;5341;47.606;7.576;2023-04-24T00:23:15;1.00;;;0.80;;
10586;SDS011;5341;47.606;7.576;2023-04-24T00:25:43;1.92;;;0.80;;
10586;SDS011;5341;47.606;7.576;2023-04-24T00:28:12;2.90;;;1.20;;
10586;SDS011;5341;47.606;7.576;2023-04-24T00:30:41;0.73;;;0.70;;
10586;SDS011;5341;47.606;7.576;2023-04-24T00:33:08;0.82;;;0.68;;
10586;SDS011;5341;47.606;7.576;2023-04-24T00:35:36;1.20;;;1.00;;
10586;SDS011;5341;47.606;7.576;2023-04-24T00:38:04;1.52;;;0.90;;
10586;SDS011;5341;47.606;7.576;2023-04-24T00:40:32;1.10;;;0.70;;
10586;SDS011;5341;47.606;7.576;2023-04-24T00:43:00;1.02;;;0.80;;
10586;SDS011;5341;47.606;7.576;2023-04-24T00:45:33;1.17;;;0.80;;
10586;SDS011;5341;47.606;7.576;2023-04-24T00:48:02;0.90;;;0.80;;
10586;SDS011;5341;47.606;7.576;2023-04-24T00:50:29;1.23;;;0.90;;
10586;SDS011;5341;47.606;7.576;2023-04-24T00:52:57;1.10;;;1.00;;
10586;SDS011;5341;47.606;7.576;2023-04-24T00:55:25;2.53;;;0.85;;
10586;SDS011;5341;47.606;7.576;2023-04-24T00:57:53;2.97;;;1.00;;
10586;SDS011;5341;47.606;7.576;2023-04-24T01:00:21;1.05;;;0.80;;
10586;SDS011;5341;47.606;7.576;2023-04-24T01:02:50;3.60;;;0.90;;
10586;SDS011;5341;47.606;7.576;2023-04-24T01:05:18;1.50;;;1.13;;
10586;SDS011;5341;47.606;7.576;2023-04-24T01:07:48;1.45;;;0.90;;
10586;SDS011;5341;47.606;7.576;2023-04-24T01:10:16;0.88;;;0.80;;
10586;SDS011;5341;47.606;7.576;2023-04-24T01:12:45;0.95;;;0.90;;
10586;SDS011;5341;47.606;7.576;2023-04-24T01:15:13;1.50;;;0.80;;
10586;SDS011;5341;47.606;7.576;2023-04-24T01:17:41;1.40;;;0.90;;
10586;SDS011;5341;47.606;7.576;2023-04-24T01:20:10;1.95;;;1.05;;
10586;SDS011;5341;47.606;7.576;2023-04-24T01:22:42;2.63;;;1.23;;
10586;SDS011;5341;47.606;7.576;2023-04-24T01:25:09;1.90;;;1.17;;
10586;SDS011;5341;47.606;7.576;2023-04-24T01:27:37;0.88;;;0.73;;
10586;SDS011;5341;47.606;7.576;2023-04-24T01:30:05;0.93;;;0.90;;
10586;SDS011;5341;47.606;7.576;2023-04-24T01:32:35;1.00;;;0.90;;
10586;SDS011;5341;47.606;7.576;2023-04-24T01:35:05;0.98;;;0.75;;
10586;SDS011;5341;47.606;7.576;2023-04-24T01:37:33;1.88;;;1.10;;
10586;SDS011;5341;47.606;7.576;2023-04-24T01:40:04;1.15;;;0.93;;
10586;SDS011;5341;47.606;7.576;2023-04-24T01:42:34;1.17;;;0.90;;
10586;SDS011;5341;47.606;7.576;2023-04-24T01:45:03;1.88;;;1.00;;
10586;SDS011;5341;47.606;7.576;2023-04-24T01:47:32;3.50;;;1.10;;
10586;SDS011;5341;47.606;7.576;2023-04-24T01:49:59;2.22;;;1.08;;
10586;SDS011;5341;47.606;7.576;2023-04-24T01:52:27;1.67;;;1.10;;
10586;SDS011;5341;47.606;7.576;2023-04-24T01:54:59;1.52;;;0.90;;
10586;SDS011;5341;47.606;7.576;2023-04-24T01:57:29;1.27;;;0.85;;
10586;SDS011;5341;47.606;7.576;2023-04-24T01:59:58;2.70;;;1.30;;
10586;SDS011;5341;47.606;7.576;2023-04-24T02:02:28;2.45;;;1.20;;
10586;SDS011;5341;47.606;7.576;2023-04-24T02:04:56;3.20;;;1.05;;
10586;SDS011;5341;47.606;7.576;2023-04-24T02:07:27;3.83;;;1.00;;
10586;SDS011;5341;47.606;7.576;2023-04-24T02:09:54;1.92;;;1.00;;
10586;SDS011;5341;47.606;7.576;2023-04-24T02:12:22;2.03;;;1.10;;
10586;SDS011;5341;47.606;7.576;2023-04-24T02:14:52;0.80;;;0.80;;
10586;SDS011;5341;47.606;7.576;2023-04-24T02:17:20;1.23;;;1.05;;
10586;SDS011;5341;47.606;7.576;2023-04-24T02:19:48;2.22;;;1.00;;
10586;SDS011;5341;47.606;7.576;2023-04-24T02:22:16;2.03;;;1.20;;
10586;SDS011;5341;47.606;7.576;2023-04-24T02:24:43;1.73;;;1.02;;
10586;SDS011;5341;47.606;7.576;2023-04-24T02:27:14;1.98;;;1.20;;
10586;SDS011;5341;47.606;7.576;2023-04-24T02:29:42;1.85;;;0.85;;
10586;SDS011;5341;47.606;7.576;2023-04-24T02:32:11;2.00;;;1.10;;
10586;SDS011;5341;47.606;7.576;2023-04-24T02:34:42;2.40;;;1.08;;
10586;SDS011;5341;47.606;7.576;2023-04-24T02:37:11;1.90;;;0.90;;
10586;SDS011;5341;47.606;7.576;2023-04-24T02:39:42;2.33;;;1.13;;
10586;SDS011;5341;47.606;7.576;2023-04-24T02:42:10;2.80;;;1.08;;
10586;SDS011;5341;47.606;7.576;2023-04-24T02:44:38;3.28;;;1.17;;
10586;SDS011;5341;47.606;7.576;2023-04-24T02:47:05;2.30;;;1.13;;
10586;SDS011;5341;47.606;7.576;2023-04-24T02:49:35;2.28;;;1.08;;
10586;SDS011;5341;47.606;7.576;2023-04-24T02:52:03;2.55;;;0.80;;
10586;SDS011;5341;47.606;7.576;2023-04-24T02:54:31;1.52;;;0.88;;
10586;SDS011;5341;47.606;7.576;2023-04-24T02:56:58;1.88;;;1.05;;
10586;SDS011;5341;47.606;7.576;2023-04-24T02:59:26;2.42;;;1.10;;
10586;SDS011;5341;47.606;7.576;2023-04-24T03:01:54;3.28;;;1.20;;
10586;SDS011;5341;47.606;7.576;2023-04-24T03:04:23;3.83;;;1.33;;
10586;SDS011;5341;47.606;7.576;2023-04-24T03:06:52;2.28;;;1.00;;
10586;SDS011;5341;47.606;7.576;2023-04-24T03:09:20;1.73;;;0.93;;
10586;SDS011;5341;47.606;7.576;2023-04-24T03:11:47;2.60;;;1.13;;
10586;SDS011;5341;47.606;7.576;2023-04-24T03:14:15;1.48;;;0.95;;
10586;SDS011;5341;47.606;7.576;2023-04-24T03:16:43;2.38;;;1.17;;
10586;SDS011;5341;47.606;7.576;2023-04-24T03:19:11;2.60;;;1.30;;
10586;SDS011;5341;47.606;7.576;2023-04-24T03:21:55;1.33;;;1.20;;
10586;SDS011;5341;47.606;7.576;2023-04-24T03:24:23;1.65;;;1.10;;
10586;SDS011;5341;47.606;7.576;2023-04-24T03:26:54;3.75;;;1.00;;
10586;SDS011;5341;47.606;7.576;2023-04-24T03:29:45;2.20;;;1.00;;
10586;SDS011;5341;47.606;7.576;2023-04-24T03:32:14;2.80;;;1.02;;
10586;SDS011;5341;47.606;7.576;2023-04-24T03:34:42;1.73;;;1.00;;
10586;SDS011;5341;47.606;7.576;2023-04-24T03:37:14;2.35;;;1.00;;
10586;SDS011;5341;47.606;7.576;2023-04-24T03:39:54;1.63;;;1.15;;
10586;SDS011;5341;47.606;7.576;2023-04-24T03:42:24;4.72;;;1.60;;
10586;SDS011;5341;47.606;7.576;2023-04-24T03:44:54;2.78;;;1.20;;
10586;SDS011;5341;47.606;7.576;2023-04-24T03:47:26;1.88;;;1.20;;
10586;SDS011;5341;47.606;7.576;2023-04-24T03:49:57;2.70;;;1.20;;
10586;SDS011;5341;47.606;7.576;2023-04-24T03:52:26;1.63;;;0.98;;
10586;SDS011;5341;47.606;7.576;2023-04-24T03:54:54;1.40;;;1.10;;
10586;SDS011;5341;47.606;7.576;2023-04-24T03:57:23;0.90;;;0.85;;
10586;SDS011;5341;47.606;7.576;2023-04-24T04:00:02;1.75;;;1.13;;
10586;SDS011;5341;47.606;7.576;2023-04-24T04:02:40;1.35;;;1.08;;
10586;SDS011;5341;47.606;7.576;2023-04-24T04:05:08;1.33;;;1.00;;
10586;SDS011;5341;47.606;7.576;2023-04-24T04:07:37;1.70;;;1.17;;
10586;SDS011;5341;47.606;7.576;2023-04-24T04:10:06;1.20;;;1.10;;
10586;SDS011;5341;47.606;7.576;2023-04-24T04:12:36;3.83;;;1.20;;
10586;SDS011;5341;47.606;7.576;2023-04-24T04:15:04;1.40;;;1.30;;
10586;SDS011;5341;47.606;7.576;2023-04-24T04:17:32;1.58;;;1.33;;
10586;SDS011;5341;47.606;7.576;2023-04-24T04:20:01;2.28;;;1.23;;
10586;SDS011;5341;47.606;7.576;2023-04-24T04:22:33;1.35;;;1.25;;
10586;SDS011;5341;47.606;7.576;2023-04-24T04:25:06;2.42;;;1.30;;
10586;SDS011;5341;47.606;7.576;2023-04-24T04:27:37;2.92;;;1.38;;
10586;SDS011;5341;47.606;7.576;2023-04-24T04:30:09;2.13;;;1.35;;
10586;SDS011;5341;47.606;7.576;2023-04-24T04:32:46;2.40;;;1.30;;
10586;SDS011;5341;47.606;7.576;2023-04-24T04:35:13;2.33;;;1.30;;
10586;SDS011;5341;47.606;7.576;2023-04-24T04:37:42;1.73;;;1.35;;
10586;SDS011;5341;47.606;7.576;2023-04-24T04:40:34;1.70;;;1.35;;
10586;SDS011;5341;47.606;7.576;2023-04-24T04:43:04;2.22;;;1.40;;
10586;SDS011;5341;47.606;7.576;2023-04-24T04:45:40;1.95;;;1.30;;
10586;SDS011;5341;47.606;7.576;2023-04-24T04:48:40;2.08;;;1.40;;
10586;SDS011;5341;47.606;7.576;2023-04-24T04:51:09;1.38;;;1.27;;
10586;SDS011;5341;47.606;7.576;2023-04-24T04:53:36;2.72;;;1.45;;
10586;SDS011;5341;47.606;7.576;2023-04-24T04:56:05;1.85;;;1.45;;
10586;SDS011;5341;47.606;7.576;2023-04-24T04:58:40;2.55;;;1.52;;
10586;SDS011;5341;47.606;7.576;2023-04-24T05:01:11;1.70;;;1.30;;
10586;SDS011;5341;47.606;7.576;2023-04-24T05:03:42;1.63;;;1.33;;
10586;SDS011;5341;47.606;7.576;2023-04-24T05:06:12;2.58;;;1.73;;
10586;SDS011;5341;47.606;7.576;2023-04-24T05:08:40;2.88;;;1.40;;
10586;SDS011;5341;47.606;7.576;2023-04-24T05:11:23;3.53;;;1.60;;
10586;SDS011;5341;47.606;7.576;2023-04-24T05:13:51;1.40;;;1.30;;
10586;SDS011;5341;47.606;7.576;2023-04-24T05:16:25;3.00;;;1.50;;
10586;SDS011;5341;47.606;7.576;2023-04-24T05:18:54;4.20;;;1.70;;
10586;SDS011;5341;47.606;7.576;2023-04-24T05:21:27;2.13;;;1.60;;
10586;SDS011;5341;47.606;7.576;2023-04-24T05:23:55;2.13;;;1.58;;
10586;SDS011;5341;47.606;7.576;2023-04-24T05:26:42;1.73;;;1.60;;
10586;SDS011;5341;47.606;7.576;2023-04-24T05:29:11;2.33;;;1.92;;
10586;SDS011;5341;47.606;7.576;2023-04-24T05:31:39;3.97;;;1.70;;
10586;SDS011;5341;47.606;7.576;2023-04-24T05:34:07;3.38;;;1.90;;
10586;SDS011;5341;47.606;7.576;2023-04-24T05:36:42;1.83;;;1.70;;
10586;SDS011;5341;47.606;7.576;2023-04-24T05:39:10;2.65;;;1.70;;
10586;SDS011;5341;47.606;7.576;2023-04-24T05:41:38;2.47;;;1.70;;
10586;SDS011;5341;47.606;7.576;2023-04-24T05:44:07;3.10;;;1.85;;
10586;SDS011;5341;47.606;7.576;2023-04-24T05:46:34;2.28;;;1.80;;
10586;SDS011;5341;47.606;7.576;2023-04-24T05:49:03;2.63;;;1.88;;
10586;SDS011;5341;47.606;7.576;2023-04-24T05:51:32;3.45;;;2.03;;
10586;SDS011;5341;47.606;7.576;2023-04-24T05:54:01;2.75;;;1.90;;
10586;SDS011;5341;47.606;7.576;2023-04-24T05:56:28;2.45;;;2.10;;
10586;SDS011;5341;47.606;7.576;2023-04-24T05:58:57;3.80;;;1.90;;
10586;SDS011;5341;47.606;7.576;2023-04-24T06:01:27;3.55;;;1.85;;
10586;SDS011;5341;47.606;7.576;2023-04-24T06:04:05;2.15;;;1.95;;
10586;SDS011;5341;47.606;7.576;2023-04-24T06:06:32;2.33;;;1.80;;
10586;SDS011;5341;47.606;7.576;2023-04-24T06:09:00;2.92;;;2.00;;
10586;SDS011;5341;47.606;7.576;2023-04-24T06:11:28;3.38;;;2.08;;
10586;SDS011;5341;47.606;7.576;2023-04-24T06:13:59;3.72;;;2.35;;
10586;SDS011;5341;47.606;7.576;2023-04-24T06:16:55;4.32;;;1.65;;
10586;SDS011;5341;47.606;7.576;2023-04-24T06:19:33;2.92;;;1.67;;
10586;SDS011;5341;47.606;7.576;2023-04-24T06:22:04;3.17;;;1.75;;
10586;SDS011;5341;47.606;7.576;2023-04-24T06:24:33;4.50;;;1.85;;
10586;SDS011;5341;47.606;7.576;2023-04-24T06:27:02;3.40;;;1.80;;
10586;SDS011;5341;47.606;7.576;2023-04-24T06:29:30;4.30;;;1.90;;
10586;SDS011;5341;47.606;7.576;2023-04-24T06:32:00;3.72;;;2.00;;
10586;SDS011;5341;47.606;7.576;2023-04-24T06:34:27;3.55;;;1.77;;
10586;SDS011;5341;47.606;7.576;2023-04-24T06:36:56;2.58;;;2.10;;
10586;SDS011;5341;47.606;7.576;2023-04-24T06:39:26;2.42;;;1.70;;
10586;SDS011;5341;47.606;7.576;2023-04-24T06:41:54;3.80;;;2.08;;
10586;SDS011;5341;47.606;7.576;2023-04-24T06:44:23;3.45;;;2.00;;
10586;SDS011;5341;47.606;7.576;2023-04-24T06:46:50;4.00;;;1.65;;
10586;SDS011;5341;47.606;7.576;2023-04-24T06:49:20;2.40;;;1.90;;
10586;SDS011;5341;47.606;7.576;2023-04-24T06:51:47;3.83;;;1.98;;
10586;SDS011;5341;47.606;7.576;2023-04-24T06:54:15;3.95;;;2.05;;
10586;SDS011;5341;47.606;7.576;2023-04-24T06:56:42;3.40;;;1.90;;
10586;SDS011;5341;47.606;7.576;2023-04-24T06:59:11;3.65;;;1.88;;
10586;SDS011;5341;47.606;7.576;2023-04-24T07:01:39;5.88;;;2.00;;
10586;SDS011;5341;47.606;7.576;2023-04-24T07:04:06;3.45;;;2.00;;
10586;SDS011;5341;47.606;7.576;2023-04-24T07:06:36;3.15;;;1.80;;
10586;SDS011;5341;47.606;7.576;2023-04-24T07:09:04;2.72;;;1.83;;
10586;SDS011;5341;47.606;7.576;2023-04-24T07:11:32;2.97;;;1.90;;
10586;SDS011;5341;47.606;7.576;2023-04-24T07:13:59;3.63;;;2.17;;
10586;SDS011;5341;47.606;7.576;2023-04-24T07:16:27;4.65;;;2.40;;
10586;SDS011;5341;47.606;7.576;2023-04-24T07:18:55;3.75;;;2.05;;
10586;SDS011;5341;47.606;7.576;2023-04-24T07:21:23;2.85;;;2.03;;
10586;SDS011;5341;47.606;7.576;2023-04-24T07:23:52;4.15;;;2.42;;
10586;SDS011;5341;47.606;7.576;2023-04-24T07:26:20;3.85;;;1.90;;
10586;SDS011;5341;47.606;7.576;2023-04-24T07:28:48;2.85;;;2.20;;
10586;SDS011;5341;47.606;7.576;2023-04-24T07:31:16;5.72;;;3.00;;
10586;SDS011;5341;47.606;7.576;2023-04-24T07:33:47;5.18;;;2.33;;
10586;SDS011;5341;47.606;7.576;2023-04-24T07:36:15;5.05;;;2.97;;
10586;SDS011;5341;47.606;7.576;2023-04-24T07:38:44;4.18;;;2.75;;
10586;SDS011;5341;47.606;7.576;2023-04-24T07:41:13;7.43;;;2.95;;
10586;SDS011;5341;47.606;7.576;2023-04-24T07:43:41;4.93;;;2.45;;
10586;SDS011;5341;47.606;7.576;2023-04-24T07:46:09;3.83;;;2.47;;
10586;SDS011;5341;47.606;7.576;2023-04-24T07:48:36;2.75;;;2.13;;
10586;SDS011;5341;47.606;7.576;2023-04-24T07:51:04;5.32;;;3.10;;
10586;SDS011;5341;47.606;7.576;2023-04-24T07:53:32;4.22;;;2.90;;
10586;SDS011;5341;47.606;7.576;2023-04-24T07:56:00;4.10;;;2.20;;
10586;SDS011;5341;47.606;7.576;2023-04-24T07:58:31;5.28;;;2.33;;
10586;SDS011;5341;47.606;7.576;2023-04-24T08:00:58;3.92;;;2.15;;
10586;SDS011;5341;47.606;7.576;2023-04-24T08:03:26;6.60;;;2.63;;
10586;SDS011;5341;47.606;7.576;2023-04-24T08:05:53;3.17;;;2.42;;
10586;SDS011;5341;47.606;7.576;2023-04-24T08:08:21;3.90;;;2.50;;
10586;SDS011;5341;47.606;7.576;2023-04-24T08:10:49;4.78;;;2.70;;
10586;SDS011;5341;47.606;7.576;2023-04-24T08:13:17;4.38;;;2.20;;
10586;SDS011;5341;47.606;7.576;2023-04-24T08:15:46;3.40;;;2.08;;
10586;SDS011;5341;47.606;7.576;2023-04-24T08:18:14;5.20;;;2.22;;
10586;SDS011;5341;47.606;7.576;2023-04-24T08:20:41;3.38;;;2.00;;
10586;SDS011;5341;47.606;7.576;2023-04-24T08:23:10;3.80;;;2.20;;
10586;SDS011;5341;47.606;7.576;2023-04-24T08:25:38;3.67;;;1.92;;
10586;SDS011;5341;47.606;7.576;2023-04-24T08:28:06;3.92;;;2.50;;
10586;SDS011;5341;47.606;7.576;2023-04-24T08:30:36;4.95;;;2.35;;
10586;SDS011;5341;47.606;7.576;2023-04-24T08:33:05;6.18;;;2.45;;
10586;SDS011;5341;47.606;7.576;2023-04-24T08:35:33;5.00;;;2.78;;
10586;SDS011;5341;47.606;7.576;2023-04-24T08:38:00;6.65;;;2.80;;
10586;SDS011;5341;47.606;7.576;2023-04-24T08:40:28;3.92;;;2.47;;
10586;SDS011;5341;47.606;7.576;2023-04-24T08:42:57;3.67;;;1.98;;
10586;SDS011;5341;47.606;7.576;2023-04-24T08:45:26;5.57;;;2.42;;
10586;SDS011;5341;47.606;7.576;2023-04-24T08:47:53;3.75;;;2.20;;
10586;SDS011;5341;47.606;7.576;2023-04-24T08:50:22;5.50;;;2.10;;
10586;SDS011;5341;47.606;7.576;2023-04-24T08:52:50;3.95;;;2.10;;
10586;SDS011;5341;47.606;7.576;2023-04-24T08:55:19;3.35;;;2.10;;
10586;SDS011;5341;47.606;7.576;2023-04-24T08:57:50;2.85;;;2.10;;
10586;SDS011;5341;47.606;7.576;2023-04-24T09:00:20;5.07;;;2.08;;
10586;SDS011;5341;47.606;7.576;2023-04-24T09:02:48;2.95;;;1.88;;
10586;SDS011;5341;47.606;7.576;2023-04-24T09:05:17;5.60;;;2.50;;
10586;SDS011;5341;47.606;7.576;2023-04-24T09:07:48;3.67;;;2.15;;
10586;SDS011;5341;47.606;7.576;2023-04-24T09:10:20;5.35;;;2.30;;
10586;SDS011;5341;47.606;7.576;2023-04-24T09:12:48;4.03;;;2.45;;
10586;SDS011;5341;47.606;7.576;2023-04-24T09:15:17;3.28;;;1.90;;
10586;SDS011;5341;47.606;7.576;2023-04-24T09:17:45;3.10;;;2.13;;
10586;SDS011;5341;47.606;7.576;2023-04-24T09:20:13;4.53;;;2.30;;
10586;SDS011;5341;47.606;7.576;2023-04-24T09:22:41;4.47;;;2.30;;
10586;SDS011;5341;47.606;7.576;2023-04-24T09:25:11;2.30;;;2.08;;
10586;SDS011;5341;47.606;7.576;2023-04-24T09:27:41;4.03;;;2.08;;
10586;SDS011;5341;47.606;7.576;2023-04-24T09:30:10;4.80;;;2.40;;
10586;SDS011;5341;47.606;7.576;2023-04-24T09:32:38;3.67;;;2.05;;
10586;SDS011;5341;47.606;7.576;2023-04-24T09:35:08;2.92;;;2.00;;
10586;SDS011;5341;47.606;7.576;2023-04-24T09:37:38;4.47;;;1.88;;
10586;SDS011;5341;47.606;7.576;2023-04-24T09:40:13;3.85;;;2.40;;
10586;SDS011;5341;47.606;7.576;2023-04-24T09:42:43;4.55;;;2.08;;
10586;SDS011;5341;47.606;7.576;2023-04-24T09:45:12;4.13;;;2.13;;
10586;SDS011;5341;47.606;7.576;2023-04-24T09:47:40;3.30;;;2.05;;
10586;SDS011;5341;47.606;7.576;2023-04-24T09:50:14;3.05;;;1.80;;
10586;SDS011;5341;47.606;7.576;2023-04-24T09:52:43;4.38;;;1.83;;
10586;SDS011;5341;47.606;7.576;2023-04-24T09:55:15;4.30;;;2.13;;
10586;SDS011;5341;47.606;7.576;2023-04-24T09:57:48;3.78;;;2.00;;
10586;SDS011;5341;47.606;7.576;2023-04-24T10:00:23;3.00;;;2.17;;
10586;SDS011;5341;47.606;7.576;2023-04-24T10:02:56;3.78;;;1.83;;
10586;SDS011;5341;47.606;7.576;2023-04-24T10:05:25;3.65;;;2.05;;
10586;SDS011;5341;47.606;7.576;2023-04-24T10:07:59;4.43;;;2.05;;
10586;SDS011;5341;47.606;7.576;2023-04-24T10:10:29;4.18;;;2.30;;
10586;SDS011;5341;47.606;7.576;2023-04-24T10:12:58;5.07;;;1.83;;
10586;SDS011;5341;47.606;7.576;2023-04-24T10:15:26;4.18;;;2.10;;
10586;SDS011;5341;47.606;7.576;2023-04-24T10:17:54;4.68;;;2.20;;
10586;SDS011;5341;47.606;7.576;2023-04-24T10:20:24;5.32;;;2.10;;
10586;SDS011;5341;47.606;7.576;2023-04-24T10:22:54;3.28;;;2.25;;
10586;SDS011;5341;47.606;7.576;2023-04-24T10:25:23;3.08;;;1.92;;
10586;SDS011;5341;47.606;7.576;2023-04-24T10:27:54;4.25;;;2.22;;
10586;SDS011;5341;47.606;7.576;2023-04-24T10:30:25;5.45;;;2.03;;
10586;SDS011;5341;47.606;7.576;2023-04-24T10:32:54;4.63;;;2.67;;
10586;SDS011;5341;47.606;7.576;2023-04-24T10:35:22;4.50;;;2.22;;
10586;SDS011;5341;47.606;7.576;2023-04-24T10:37:54;4.72;;;2.58;;
10586;SDS011;5341;47.606;7.576;2023-04-24T10:40:25;3.10;;;2.10;;
10586;SDS011;5341;47.606;7.576;2023-04-24T10:42:56;3.70;;;2.40;;
10586;SDS011;5341;47.606;7.576;2023-04-24T10:45:28;4.53;;;2.17;;
10586;SDS011;5341;47.606;7.576;2023-04-24T10:47:59;3.78;;;2.55;;
10586;SDS011;5341;47.606;7.576;2023-04-24T10:50:29;3.53;;;2.20;;
10586;SDS011;5341;47.606;7.576;2023-04-24T10:53:15;5.97;;;2.55;;
10586;SDS011;5341;47.606;7.576;2023-04-24T10:55:44;9.55;;;4.18;;
10586;SDS011;5341;47.606;7.576;2023-04-24T10:58:15;4.15;;;2.70;;
10586;SDS011;5341;47.606;7.576;2023-04-24T11:00:55;5.65;;;2.45;;
10586;SDS011;5341;47.606;7.576;2023-04-24T11:03:24;3.45;;;2.00;;
10586;SDS011;5341;47.606;7.576;2023-04-24T11:05:55;4.05;;;2.45;;
10586;SDS011;5341;47.606;7.576;2023-04-24T11:08:26;5.95;;;3.40;;
10586;SDS011;5341;47.606;7.576;2023-04-24T11:10:56;2.35;;;1.98;;
10586;SDS011;5341;47.606;7.576;2023-04-24T11:13:28;4.78;;;2.90;;
10586;SDS011;5341;47.606;7.576;2023-04-24T11:16:32;3.97;;;2.35;;
10586;SDS011;5341;47.606;7.576;2023-04-24T11:19:03;3.33;;;2.35;;
10586;SDS011;5341;47.606;7.576;2023-04-24T11:21:32;4.43;;;2.30;;
10586;SDS011;5341;47.606;7.576;2023-04-24T11:24:25;5.50;;;2.15;;
10586;SDS011;5341;47.606;7.576;2023-04-24T11:26:58;3.50;;;2.38;;
10586;SDS011;5341;47.606;7.576;2023-04-24T11:29:40;5.32;;;2.10;;
10586;SDS011;5341;47.606;7.576;2023-04-24T11:32:24;3.97;;;2.42;;
10586;SDS011;5341;47.606;7.576;2023-04-24T11:34:54;2.40;;;1.80;;
10586;SDS011;5341;47.606;7.576;2023-04-24T11:37:22;4.50;;;2.28;;
10586;SDS011;5341;47.606;7.576;2023-04-24T11:39:53;5.18;;;2.45;;
10586;SDS011;5341;47.606;7.576;2023-04-24T11:42:21;5.10;;;2.30;;
10586;SDS011;5341;47.606;7.576;2023-04-24T11:44:53;4.68;;;2.75;;
10586;SDS011;5341;47.606;7.576;2023-04-24T11:47:31;4.35;;;2.97;;
10586;SDS011;5341;47.606;7.576;2023-04-24T11:49:59;3.97;;;2.55;;
10586;SDS011;5341;47.606;7.576;2023-04-24T11:52:27;8.85;;;3.20;;
10586;SDS011;5341;47.606;7.576;2023-04-24T11:54:55;5.75;;;3.40;;
10586;SDS011;5341;47.606;7.576;2023-04-24T11:57:24;6.95;;;3.63;;
10586;SDS011;5341;47.606;7.576;2023-04-24T11:59:55;5.80;;;2.63;;
10586;SDS011;5341;47.606;7.576;2023-04-24T12:02:23;6.90;;;2.05;;
10586;SDS011;5341;47.606;7.576;2023-04-24T12:04:51;3.88;;;2.63;;
10586;SDS011;5341;47.606;7.576;2023-04-24T12:07:19;5.90;;;2.53;;
10586;SDS011;5341;47.606;7.576;2023-04-24T12:09:47;5.03;;;2.58;;
10586;SDS011;5341;47.606;7.576;2023-04-24T12:12:16;6.63;;;2.40;;
10586;SDS011;5341;47.606;7.576;2023-04-24T12:14:48;5.75;;;2.75;;
10586;SDS011;5341;47.606;7.576;2023-04-24T12:17:23;4.65;;;2.30;;
10586;SDS011;5341;47.606;7.576;2023-04-24T12:19:52;3.72;;;2.83;;
10586;SDS011;5341;47.606;7.576;2023-04-24T12:22:23;9.80;;;2.97;;
10586;SDS011;5341;47.606;7.576;2023-04-24T12:25:00;19.17;;;3.70;;
10586;SDS011;5341;47.606;7.576;2023-04-24T12:27:30;8.63;;;4.50;;
10586;SDS011;5341;47.606;7.576;2023-04-24T12:29:59;19.08;;;11.70;;
10586;SDS011;5341;47.606;7.576;2023-04-24T12:32:28;8.02;;;4.85;;
10586;SDS011;5341;47.606;7.576;2023-04-24T12:34:56;5.07;;;2.80;;
10586;SDS011;5341;47.606;7.576;2023-04-24T12:37:24;4.13;;;3.05;;
10586;SDS011;5341;47.606;7.576;2023-04-24T12:39:59;5.20;;;2.22;;
10586;SDS011;5341;47.606;7.576;2023-04-24T12:42:27;2.45;;;2.00;;
10586;SDS011;5341;47.606;7.576;2023-04-24T12:44:56;4.05;;;2.63;;
10586;SDS011;5341;47.606;7.576;2023-04-24T12:47:26;6.32;;;4.13;;
10586;SDS011;5341;47.606;7.576;2023-04-24T12:49:55;7.00;;;4.10;;
10586;SDS011;5341;47.606;7.576;2023-04-24T12:52:23;3.85;;;2.42;;
10586;SDS011;5341;47.606;7.576;2023-04-24T12:54:52;2.78;;;2.30;;
10586;SDS011;5341;47.606;7.576;2023-04-24T12:57:20;4.82;;;2.42;;
10586;SDS011;5341;47.606;7.576;2023-04-24T12:59:48;3.20;;;2.20;;
10586;SDS011;5341;47.606;7.576;2023-04-24T13:02:16;2.78;;;1.90;;
10586;SDS011;5341;47.606;7.576;2023-04-24T13:04:44;3.63;;;2.70;;
10586;SDS011;5341;47.606;7.576;2023-04-24T13:07:14;11.57;;;7.20;;
10586;SDS011;5341;47.606;7.576;2023-04-24T13:09:42;3.63;;;2.78;;
10586;SDS011;5341;47.606;7.576;2023-04-24T13:12:10;6.03;;;2.78;;
10586;SDS011;5341;47.606;7.576;2023-04-24T13:14:38;3.80;;;2.40;;
10586;SDS011;5341;47.606;7.576;2023-04-24T13:17:06;2.75;;;1.92;;
10586;SDS011;5341;47.606;7.576;2023-04-24T13:19:38;2.60;;;2.00;;
10586;SDS011;5341;47.606;7.576;2023-04-24T13:22:08;2.88;;;1.80;;
10586;SDS011;5341;47.606;7.576;2023-04-24T13:24:38;3.65;;;2.08;;
10586;SDS011;5341;47.606;7.576;2023-04-24T13:27:07;4.72;;;2.03;;
10586;SDS011;5341;47.606;7.576;2023-04-24T13:29:35;3.35;;;1.90;;
10586;SDS011;5341;47.606;7.576;2023-04-24T13:32:02;2.80;;;2.20;;
10586;SDS011;5341;47.606;7.576;2023-04-24T13:34:31;6.25;;;1.95;;
10586;SDS011;5341;47.606;7.576;2023-04-24T13:36:59;3.45;;;2.10;;
10586;SDS011;5341;47.606;7.576;2023-04-24T13:39:29;4.22;;;2.78;;
10586;SDS011;5341;47.606;7.576;2023-04-24T13:41:58;2.22;;;2.03;;
10586;SDS011;5341;47.606;7.576;2023-04-24T13:44:26;2.95;;;2.20;;
10586;SDS011;5341;47.606;7.576;2023-04-24T13:46:54;2.55;;;2.00;;
10586;SDS011;5341;47.606;7.576;2023-04-24T13:49:23;3.33;;;2.20;;
10586;SDS011;5341;47.606;7.576;2023-04-24T13:51:52;4.85;;;2.40;;
10586;SDS011;5341;47.606;7.576;2023-04-24T13:54:20;6.53;;;2.03;;
10586;SDS011;5341;47.606;7.576;2023-04-24T13:56:48;7.13;;;2.05;;
10586;SDS011;5341;47.606;7.576;2023-04-24T13:59:18;2.47;;;1.88;;
10586;SDS011;5341;47.606;7.576;2023-04-24T14:01:46;2.38;;;1.90;;
10586;SDS011;5341;47.606;7.576;2023-04-24T14:04:14;2.20;;;1.70;;
10586;SDS011;5341;47.606;7.576;2023-04-24T14:06:41;4.32;;;1.90;;
10586;SDS011;5341;47.606;7.576;2023-04-24T14:09:10;2.60;;;1.95;;
10586;SDS011;5341;47.606;7.576;2023-04-24T14:11:38;3.00;;;2.05;;
10586;SDS011;5341;47.606;7.576;2023-04-24T14:14:05;2.97;;;2.00;;
10586;SDS011;5341;47.606;7.576;2023-04-24T14:16:35;2.55;;;1.70;;
10586;SDS011;5341;47.606;7.576;2023-04-24T14:19:02;4.25;;;1.90;;
10586;SDS011;5341;47.606;7.576;2023-04-24T14:21:30;3.25;;;1.92;;
10586;SDS011;5341;47.606;7.576;2023-04-24T14:23:58;6.25;;;2.28;;
10586;SDS011;5341;47.606;7.576;2023-04-24T14:26:25;3.80;;;2.30;;
10586;SDS011;5341;47.606;7.576;2023-04-24T14:28:53;3.85;;;2.08;;
10586;SDS011;5341;47.606;7.576;2023-04-24T14:31:20;4.35;;;1.90;;
10586;SDS011;5341;47.606;7.576;2023-04-24T14:33:49;5.72;;;1.98;;
10586;SDS011;5341;47.606;7.576;2023-04-24T14:36:17;4.88;;;2.13;;
10586;SDS011;5341;47.606;7.576;2023-04-24T14:38:44;4.97;;;2.00;;
10586;SDS011;5341;47.606;7.576;2023-04-24T14:41:12;4.45;;;2.35;;
10586;SDS011;5341;47.606;7.576;2023-04-24T14:43:39;5.10;;;2.50;;
10586;SDS011;5341;47.606;7.576;2023-04-24T14:46:07;4.45;;;2.08;;
10586;SDS011;5341;47.606;7.576;2023-04-24T14:48:35;3.70;;;1.90;;
10586;SDS011;5341;47.606;7.576;2023-04-24T14:51:04;6.47;;;2.05;;
10586;SDS011;5341;47.606;7.576;2023-04-24T14:53:31;3.50;;;2.20;;
10586;SDS011;5341;47.606;7.576;2023-04-24T14:55:59;2.80;;;2.20;;
10586;SDS011;5341;47.606;7.576;2023-04-24T14:58:26;3.17;;;2.20;;
10586;SDS011;5341;47.606;7.576;2023-04-24T15:00:53;3.35;;;2.03;;
10586;SDS011;5341;47.606;7.576;2023-04-24T15:03:21;3.50;;;2.30;;
10586;SDS011;5341;47.606;7.576;2023-04-24T15:05:48;2.95;;;2.30;;
10586;SDS011;5341;47.606;7.576;2023-04-24T15:08:18;3.13;;;2.30;;
10586;SDS011;5341;47.606;7.576;2023-04-24T15:10:46;2.97;;;2.33;;
10586;SDS011;5341;47.606;7.576;2023-04-24T15:13:14;3.15;;;2.20;;
10586;SDS011;5341;47.606;7.576;2023-04-24T15:15:41;2.83;;;2.30;;